createdAt,value
2018-10-18T00:00:38.108Z,0
2018-10-18T00:01:46.755Z,0
2018-10-18T00:02:55.664Z,0
2018-10-18T00:04:04.309Z,0
2018-10-18T00:05:12.947Z,0
2018-10-18T00:06:21.593Z,0
2018-10-18T00:07:30.233Z,0
2018-10-18T00:08:38.880Z,0
2018-10-18T00:09:47.527Z,0
2018-10-18T00:10:56.427Z,0
2018-10-18T00:12:05.776Z,0
2018-10-18T00:13:14.402Z,0
2018-10-18T00:14:23.446Z,0
2018-10-18T00:15:32.091Z,0
2018-10-18T00:16:40.775Z,0
2018-10-18T00:17:49.377Z,0
2018-10-18T00:18:58.544Z,0
2018-10-18T00:20:07.203Z,0
2018-10-18T00:21:16.099Z,0
2018-10-18T00:22:24.743Z,0
2018-10-18T00:23:33.381Z,0
2018-10-18T00:24:42.036Z,0
2018-10-18T00:25:50.946Z,0
2018-10-18T00:26:59.589Z,0
2018-10-18T00:28:08.500Z,0
2018-10-18T00:29:17.404Z,0
2018-10-18T00:30:26.046Z,0
2018-10-18T00:31:34.688Z,0
2018-10-18T00:32:43.337Z,0
2018-10-18T00:33:51.975Z,0
2018-10-18T00:35:00.887Z,0
2018-10-18T00:36:09.589Z,0
2018-10-18T00:37:18.579Z,0
2018-10-18T00:38:27.216Z,0
2018-10-18T00:39:35.859Z,0
2018-10-18T00:40:44.500Z,0
2018-10-18T00:41:53.176Z,0
2018-10-18T00:43:01.789Z,0
2018-10-18T00:44:10.455Z,0
2018-10-18T00:45:19.071Z,0
2018-10-18T00:46:27.713Z,0
2018-10-18T00:47:36.360Z,0
2018-10-18T00:48:45.264Z,0
2018-10-18T00:49:53.955Z,0
2018-10-18T00:51:02.559Z,0
2018-10-18T00:52:11.467Z,0
2018-10-18T00:53:20.112Z,0
2018-10-18T00:54:28.757Z,0
2018-10-18T00:55:37.396Z,0
2018-10-18T00:56:46.041Z,0
2018-10-18T00:57:54.682Z,0
2018-10-18T00:59:03.327Z,0
2018-10-18T01:00:12.045Z,0
2018-10-18T01:01:21.049Z,0
2018-10-18T01:02:29.694Z,0
2018-10-18T01:03:38.339Z,0
2018-10-18T01:04:46.984Z,0
2018-10-18T01:05:55.952Z,0
2018-10-18T01:07:04.864Z,0
2018-10-18T01:08:13.603Z,0
2018-10-18T01:09:22.159Z,0
2018-10-18T01:10:30.798Z,0
2018-10-18T01:11:39.487Z,0
2018-10-18T01:12:48.528Z,0
2018-10-18T01:13:57.205Z,0
2018-10-18T01:15:05.826Z,0
2018-10-18T01:16:14.470Z,0
2018-10-18T01:17:23.110Z,0
2018-10-18T01:18:31.761Z,0
2018-10-18T01:19:40.412Z,0
2018-10-18T01:20:49.572Z,0
2018-10-18T01:21:58.214Z,0
2018-10-18T01:23:06.855Z,0
2018-10-18T01:24:16.328Z,0
2018-10-18T01:25:24.933Z,0
2018-10-18T01:26:34.106Z,0
2018-10-18T01:27:42.741Z,0
2018-10-18T01:28:51.398Z,0
2018-10-18T01:30:00.658Z,0
2018-10-18T01:31:09.251Z,0
2018-10-18T01:32:18.549Z,0
2018-10-18T01:33:27.040Z,0
2018-10-18T01:34:35.681Z,0
2018-10-18T01:35:44.858Z,0
2018-10-18T01:36:53.494Z,0
2018-10-18T01:38:02.511Z,0
2018-10-18T01:39:11.053Z,0
2018-10-18T01:40:19.960Z,0
2018-10-18T01:41:28.608Z,0
2018-10-18T01:42:37.249Z,0
2018-10-18T01:43:45.898Z,0
2018-10-18T01:44:54.536Z,0
2018-10-18T01:46:03.454Z,0
2018-10-18T01:47:12.085Z,0
2018-10-18T01:48:21.194Z,0
2018-10-18T01:49:29.831Z,0
2018-10-18T01:50:38.754Z,0
2018-10-18T01:51:47.389Z,0
2018-10-18T01:52:56.033Z,0
2018-10-18T01:54:04.737Z,0
2018-10-18T01:55:13.327Z,0
2018-10-18T01:56:21.967Z,0
2018-10-18T01:57:30.870Z,0
2018-10-18T01:58:39.510Z,0
2018-10-18T01:59:48.153Z,0
2018-10-18T02:00:56.804Z,0
2018-10-18T02:02:05.456Z,0
2018-10-18T02:03:14.101Z,0
2018-10-18T02:04:23.001Z,0
2018-10-18T02:05:31.653Z,0
2018-10-18T02:06:40.557Z,0
2018-10-18T02:07:49.204Z,0
2018-10-18T02:08:57.838Z,0
2018-10-18T02:10:06.494Z,0
2018-10-18T02:11:15.136Z,0
2018-10-18T02:12:23.782Z,0
2018-10-18T02:13:32.727Z,0
2018-10-18T02:14:41.646Z,0
2018-10-18T02:15:50.294Z,0
2018-10-18T02:16:58.941Z,0
2018-10-18T02:18:07.905Z,0
2018-10-18T02:19:16.527Z,0
2018-10-18T02:20:25.161Z,0
2018-10-18T02:21:34.060Z,0
2018-10-18T02:22:42.712Z,0
2018-10-18T02:23:51.354Z,0
2018-10-18T02:25:00.299Z,0
2018-10-18T02:26:08.916Z,0
2018-10-18T02:27:17.568Z,0
2018-10-18T02:28:26.461Z,0
2018-10-18T02:29:35.118Z,0
2018-10-18T02:30:43.759Z,0
2018-10-18T02:31:52.410Z,0
2018-10-18T02:33:01.057Z,0
2018-10-18T02:34:10.237Z,0
2018-10-18T02:35:19.171Z,0
2018-10-18T02:36:27.809Z,0
2018-10-18T02:37:36.463Z,0
2018-10-18T02:38:45.364Z,0
2018-10-18T02:39:54.015Z,0
2018-10-18T02:41:03.173Z,0
2018-10-18T02:42:11.877Z,0
2018-10-18T02:43:20.470Z,0
2018-10-18T02:44:29.120Z,0
2018-10-18T02:45:37.762Z,0
2018-10-18T02:46:46.416Z,0
2018-10-18T02:47:55.081Z,0
2018-10-18T02:49:04.015Z,0
2018-10-18T02:50:12.915Z,0
2018-10-18T02:51:21.561Z,0
2018-10-18T02:52:30.213Z,0
2018-10-18T02:53:38.864Z,0
2018-10-18T02:54:47.509Z,0
2018-10-18T02:55:56.408Z,0
2018-10-18T02:57:05.058Z,0
2018-10-18T02:58:13.699Z,0
2018-10-18T02:59:22.354Z,0
2018-10-18T03:00:31.253Z,0
2018-10-18T03:01:39.903Z,0
2018-10-18T03:02:48.544Z,0
2018-10-18T03:03:57.196Z,0
2018-10-18T03:05:05.834Z,0
2018-10-18T03:06:14.609Z,0
2018-10-18T03:07:23.501Z,0
2018-10-18T03:08:32.155Z,0
2018-10-18T03:09:40.804Z,0
2018-10-18T03:10:49.968Z,0
2018-10-18T03:11:58.703Z,0
2018-10-18T03:13:07.254Z,0
2018-10-18T03:14:15.906Z,0
2018-10-18T03:15:24.552Z,0
2018-10-18T03:16:33.194Z,0
2018-10-18T03:17:42.101Z,0
2018-10-18T03:18:50.752Z,0
2018-10-18T03:19:59.392Z,0
2018-10-18T03:21:08.036Z,0
2018-10-18T03:22:16.939Z,0
2018-10-18T03:23:25.589Z,0
2018-10-18T03:24:34.232Z,0
2018-10-18T03:25:42.882Z,0
2018-10-18T03:26:51.824Z,0
2018-10-18T03:28:01.274Z,0
2018-10-18T03:29:09.921Z,0
2018-10-18T03:30:19.132Z,0
2018-10-18T03:31:27.604Z,0
2018-10-18T03:32:36.552Z,0
2018-10-18T03:33:45.197Z,0
2018-10-18T03:34:53.838Z,0
2018-10-18T03:36:02.570Z,0
2018-10-18T03:37:11.489Z,0
2018-10-18T03:38:20.133Z,0
2018-10-18T03:39:28.789Z,0
2018-10-18T03:40:37.712Z,0
2018-10-18T03:41:46.349Z,0
2018-10-18T03:42:54.998Z,0
2018-10-18T03:44:03.913Z,0
2018-10-18T03:45:12.832Z,0
2018-10-18T03:46:21.478Z,0
2018-10-18T03:47:30.118Z,0
2018-10-18T03:48:39.029Z,0
2018-10-18T03:49:47.669Z,0
2018-10-18T03:50:56.316Z,0
2018-10-18T03:52:05.223Z,0
2018-10-18T03:53:13.870Z,0
2018-10-18T03:54:22.512Z,0
2018-10-18T03:55:31.156Z,0
2018-10-18T03:56:39.802Z,0
2018-10-18T03:57:48.983Z,0
2018-10-18T03:58:57.610Z,0
2018-10-18T04:00:06.669Z,0
2018-10-18T04:01:15.267Z,0
2018-10-18T04:02:23.915Z,0
2018-10-18T04:03:32.838Z,0
2018-10-18T04:04:41.483Z,0
2018-10-18T04:05:50.128Z,0
2018-10-18T04:06:58.769Z,0
2018-10-18T04:08:07.680Z,0
2018-10-18T04:09:16.320Z,0
2018-10-18T04:10:24.968Z,0
2018-10-18T04:11:33.614Z,0
2018-10-18T04:12:42.273Z,0
2018-10-18T04:13:51.328Z,0
2018-10-18T04:15:00.236Z,0
2018-10-18T04:16:08.885Z,0
2018-10-18T04:17:17.531Z,0
2018-10-18T04:18:26.503Z,0
2018-10-18T04:19:35.078Z,0
2018-10-18T04:20:43.723Z,0
2018-10-18T04:21:52.363Z,0
2018-10-18T04:23:01.302Z,0
2018-10-18T04:24:09.985Z,0
2018-10-18T04:25:18.594Z,0
2018-10-18T04:26:27.244Z,0
2018-10-18T04:27:35.880Z,0
2018-10-18T04:28:44.785Z,0
2018-10-18T04:29:53.455Z,0
2018-10-18T04:31:02.080Z,0
2018-10-18T04:32:10.726Z,0
2018-10-18T04:33:19.378Z,0
2018-10-18T04:34:28.301Z,0
2018-10-18T04:35:36.958Z,0
2018-10-18T04:36:45.864Z,0
2018-10-18T04:37:54.513Z,0
2018-10-18T04:39:03.154Z,0
2018-10-18T04:40:11.805Z,0
2018-10-18T04:41:20.721Z,0
2018-10-18T04:42:29.364Z,0
2018-10-18T04:43:38.267Z,0
2018-10-18T04:44:46.908Z,0
2018-10-18T04:45:55.815Z,0
2018-10-18T04:47:04.763Z,0
2018-10-18T04:48:13.568Z,0
2018-10-18T04:49:22.043Z,0
2018-10-18T04:50:30.952Z,0
2018-10-18T04:51:39.595Z,0
2018-10-18T04:52:48.238Z,0
2018-10-18T04:53:57.142Z,0
2018-10-18T04:55:05.811Z,0
2018-10-18T04:56:14.864Z,0
2018-10-18T04:57:23.782Z,0
2018-10-18T04:58:32.945Z,0
2018-10-18T04:59:41.591Z,0
2018-10-18T05:00:50.241Z,0
2018-10-18T05:01:58.882Z,0
2018-10-18T05:03:07.528Z,0
2018-10-18T05:04:16.167Z,0
2018-10-18T05:05:25.082Z,0
2018-10-18T05:06:33.723Z,0
2018-10-18T05:07:42.637Z,0
2018-10-18T05:08:51.276Z,0
2018-10-18T05:09:59.921Z,0
2018-10-18T05:11:08.572Z,0
2018-10-18T05:12:17.217Z,0
2018-10-18T05:13:25.852Z,0
2018-10-18T05:14:34.496Z,0
2018-10-18T05:15:43.140Z,0
2018-10-18T05:16:51.789Z,0
2018-10-18T05:18:00.430Z,0
2018-10-18T05:19:09.095Z,0
2018-10-18T05:20:18.129Z,0
2018-10-18T05:21:26.769Z,0
2018-10-18T05:22:35.576Z,0
2018-10-18T05:23:44.605Z,0
2018-10-18T05:24:53.418Z,0
2018-10-18T05:26:02.386Z,0
2018-10-18T05:27:11.303Z,4
2018-10-18T05:28:20.008Z,4
2018-10-18T05:29:28.657Z,0
2018-10-18T05:30:37.527Z,4
2018-10-18T05:31:46.600Z,4
2018-10-18T05:32:55.081Z,4
2018-10-18T05:34:03.725Z,4
2018-10-18T05:35:12.359Z,4
2018-10-18T05:36:21.004Z,4
2018-10-18T05:37:29.687Z,4
2018-10-18T05:38:38.632Z,8
2018-10-18T05:39:47.284Z,8
2018-10-18T05:40:55.918Z,12
2018-10-18T05:42:04.566Z,12
2018-10-18T05:43:13.369Z,16
2018-10-18T05:44:21.859Z,20
2018-10-18T05:45:30.496Z,24
2018-10-18T05:46:39.194Z,24
2018-10-18T05:47:48.045Z,28
2018-10-18T05:48:57.031Z,36
2018-10-18T05:50:06.004Z,40
2018-10-18T05:51:14.648Z,44
2018-10-18T05:52:23.289Z,52
2018-10-18T05:53:32.034Z,56
2018-10-18T05:54:40.586Z,68
2018-10-18T05:55:49.489Z,76
2018-10-18T05:56:58.131Z,80
2018-10-18T05:58:06.771Z,88
2018-10-18T05:59:15.421Z,100
2018-10-18T06:00:24.161Z,116
2018-10-18T06:01:32.704Z,124
2018-10-18T06:02:41.599Z,136
2018-10-18T06:03:50.253Z,148
2018-10-18T06:04:58.890Z,164
2018-10-18T06:06:07.538Z,180
2018-10-18T06:07:16.339Z,196
2018-10-18T06:08:24.823Z,212
2018-10-18T06:09:33.516Z,224
2018-10-18T06:10:42.423Z,232
2018-10-18T06:11:51.061Z,248
2018-10-18T06:12:59.992Z,268
2018-10-18T06:14:08.892Z,292
2018-10-18T06:15:17.536Z,316
2018-10-18T06:16:26.442Z,336
2018-10-18T06:17:35.077Z,356
2018-10-18T06:18:43.719Z,376
2018-10-18T06:19:52.361Z,396
2018-10-18T06:21:01.013Z,412
2018-10-18T06:22:09.650Z,432
2018-10-18T06:23:18.391Z,460
2018-10-18T06:24:26.936Z,460
2018-10-18T06:25:35.583Z,444
2018-10-18T06:26:44.489Z,440
2018-10-18T06:27:53.136Z,444
2018-10-18T06:29:01.843Z,452
2018-10-18T06:30:10.425Z,456
2018-10-18T06:31:19.068Z,464
2018-10-18T06:32:27.710Z,492
2018-10-18T06:33:36.352Z,540
2018-10-18T06:34:44.991Z,596
2018-10-18T06:35:53.634Z,636
2018-10-18T06:37:02.367Z,648
2018-10-18T06:38:10.927Z,640
2018-10-18T06:39:19.941Z,616
2018-10-18T06:40:28.478Z,608
2018-10-18T06:41:37.123Z,620
2018-10-18T06:42:45.767Z,656
2018-10-18T06:43:54.407Z,700
2018-10-18T06:45:03.090Z,732
2018-10-18T06:46:11.699Z,752
2018-10-18T06:47:20.685Z,748
2018-10-18T06:48:29.605Z,732
2018-10-18T06:49:38.270Z,732
2018-10-18T06:50:47.196Z,768
2018-10-18T06:51:55.841Z,808
2018-10-18T06:53:04.486Z,796
2018-10-18T06:54:13.191Z,756
2018-10-18T06:55:21.773Z,756
2018-10-18T06:56:30.409Z,764
2018-10-18T06:57:39.059Z,744
2018-10-18T06:58:47.700Z,724
2018-10-18T06:59:56.407Z,716
2018-10-18T07:01:04.985Z,684
2018-10-18T07:02:13.894Z,684
2018-10-18T07:03:22.533Z,728
2018-10-18T07:04:31.177Z,784
2018-10-18T07:05:40.081Z,836
2018-10-18T07:06:48.730Z,868
2018-10-18T07:07:57.373Z,908
2018-10-18T07:09:06.411Z,928
2018-10-18T07:10:15.042Z,940
2018-10-18T07:11:23.683Z,988
2018-10-18T07:12:32.335Z,1048
2018-10-18T07:13:40.972Z,1104
2018-10-18T07:14:49.617Z,1152
2018-10-18T07:15:58.523Z,1216
2018-10-18T07:17:07.439Z,1256
2018-10-18T07:18:17.044Z,1300
2018-10-18T07:19:25.569Z,1316
2018-10-18T07:20:34.205Z,1328
2018-10-18T07:21:42.858Z,1312
2018-10-18T07:22:51.499Z,1328
2018-10-18T07:24:00.496Z,1308
2018-10-18T07:25:09.468Z,1296
2018-10-18T07:26:18.077Z,1296
2018-10-18T07:27:26.723Z,1292
2018-10-18T07:28:35.645Z,1264
2018-10-18T07:29:44.294Z,1224
2018-10-18T07:30:53.238Z,1192
2018-10-18T07:32:01.884Z,1236
2018-10-18T07:33:10.523Z,1312
2018-10-18T07:34:19.440Z,1296
2018-10-18T07:35:28.075Z,1312
2018-10-18T07:36:36.984Z,1308
2018-10-18T07:37:45.628Z,1396
2018-10-18T07:38:54.276Z,1432
2018-10-18T07:40:02.911Z,1436
2018-10-18T07:41:11.569Z,1444
2018-10-18T07:42:20.374Z,1468
2018-10-18T07:43:29.117Z,1304
2018-10-18T07:44:38.042Z,1260
2018-10-18T07:45:46.680Z,1248
2018-10-18T07:46:55.462Z,1236
2018-10-18T07:48:04.050Z,1236
2018-10-18T07:49:12.619Z,1240
2018-10-18T07:50:21.257Z,1336
2018-10-18T07:51:29.907Z,1360
2018-10-18T07:52:38.535Z,1356
2018-10-18T07:53:47.606Z,1396
2018-10-18T07:54:56.242Z,1412
2018-10-18T07:56:04.889Z,1452
2018-10-18T07:57:13.523Z,1544
2018-10-18T07:58:22.174Z,1572
2018-10-18T07:59:31.079Z,1516
2018-10-18T08:00:39.876Z,1516
2018-10-18T08:01:48.369Z,1484
2018-10-18T08:02:57.012Z,1504
2018-10-18T08:04:05.663Z,1516
2018-10-18T08:05:14.308Z,1500
2018-10-18T08:06:23.225Z,1464
2018-10-18T08:07:31.865Z,1440
2018-10-18T08:08:40.512Z,1456
2018-10-18T08:09:49.444Z,1392
2018-10-18T08:10:58.703Z,1284
2018-10-18T08:12:07.598Z,1528
2018-10-18T08:13:16.306Z,1500
2018-10-18T08:14:24.890Z,1532
2018-10-18T08:15:33.521Z,1592
2018-10-18T08:16:42.189Z,1576
2018-10-18T08:17:51.135Z,1624
2018-10-18T08:18:59.852Z,1640
2018-10-18T08:20:08.682Z,1616
2018-10-18T08:21:17.591Z,1604
2018-10-18T08:22:26.257Z,1740
2018-10-18T08:23:34.878Z,1852
2018-10-18T08:24:43.524Z,1824
2018-10-18T08:25:52.163Z,1884
2018-10-18T08:27:00.809Z,1592
2018-10-18T08:28:09.452Z,1388
2018-10-18T08:29:18.366Z,1804
2018-10-18T08:30:26.998Z,1920
2018-10-18T08:31:37.192Z,1976
2018-10-18T08:32:45.247Z,2064
2018-10-18T08:33:54.163Z,1732
2018-10-18T08:35:02.796Z,1704
2018-10-18T08:36:11.441Z,2480
2018-10-18T08:37:20.192Z,2072
2018-10-18T08:38:28.738Z,1936
2018-10-18T08:39:37.644Z,2012
2018-10-18T08:40:46.282Z,2248
2018-10-18T08:41:54.923Z,2272
2018-10-18T08:43:03.916Z,2140
2018-10-18T08:44:12.520Z,2084
2018-10-18T08:45:21.149Z,1968
2018-10-18T08:46:29.793Z,2024
2018-10-18T08:47:38.690Z,2040
2018-10-18T08:48:47.343Z,2240
2018-10-18T08:49:56.435Z,2060
2018-10-18T08:51:05.025Z,2232
2018-10-18T08:52:13.921Z,2512
2018-10-18T08:53:22.571Z,2304
2018-10-18T08:54:31.211Z,2572
2018-10-18T08:55:40.368Z,2072
2018-10-18T08:56:48.925Z,2508
2018-10-18T08:57:57.572Z,2496
2018-10-18T08:59:06.263Z,2416
2018-10-18T09:00:14.879Z,2096
2018-10-18T09:01:24.157Z,1956
2018-10-18T09:02:32.792Z,2660
2018-10-18T09:03:41.561Z,2688
2018-10-18T09:04:50.198Z,2372
2018-10-18T09:05:58.861Z,2540
2018-10-18T09:07:07.586Z,2940
2018-10-18T09:08:16.150Z,2924
2018-10-18T09:09:24.794Z,2592
2018-10-18T09:10:33.708Z,2836
2018-10-18T09:11:42.346Z,3388
2018-10-18T09:12:50.991Z,3448
2018-10-18T09:14:00.053Z,3436
2018-10-18T09:15:08.748Z,3776
2018-10-18T09:16:18.300Z,3072
2018-10-18T09:17:26.946Z,3300
2018-10-18T09:18:35.592Z,3376
2018-10-18T09:19:44.238Z,3680
2018-10-18T09:20:52.891Z,3068
2018-10-18T09:22:01.797Z,3432
2018-10-18T09:23:10.968Z,2800
2018-10-18T09:24:19.616Z,3212
2018-10-18T09:25:28.264Z,2892
2018-10-18T09:26:37.758Z,3280
2018-10-18T09:27:46.404Z,3148
2018-10-18T09:28:55.047Z,3004
2018-10-18T09:30:03.726Z,2280
2018-10-18T09:31:12.728Z,2852
2018-10-18T09:32:22.662Z,2144
2018-10-18T09:33:31.311Z,2360
2018-10-18T09:34:40.222Z,3128
2018-10-18T09:35:48.874Z,2588
2018-10-18T09:36:57.550Z,2748
2018-10-18T09:38:06.450Z,3920
2018-10-18T09:39:15.793Z,4692
2018-10-18T09:40:24.497Z,5156
2018-10-18T09:41:33.139Z,5776
2018-10-18T09:42:41.791Z,6136
2018-10-18T09:43:50.434Z,5164
2018-10-18T09:44:59.582Z,4324
2018-10-18T09:46:08.167Z,3648
2018-10-18T09:47:16.818Z,3220
2018-10-18T09:48:25.458Z,3072
2018-10-18T09:49:34.370Z,3076
2018-10-18T09:50:43.013Z,3084
2018-10-18T09:51:51.662Z,2984
2018-10-18T09:53:00.592Z,3032
2018-10-18T09:54:09.209Z,3048
2018-10-18T09:55:17.998Z,2804
2018-10-18T09:56:27.218Z,2644
2018-10-18T09:57:35.872Z,2836
2018-10-18T09:58:44.517Z,2880
2018-10-18T09:59:53.161Z,2824
2018-10-18T10:01:01.817Z,2824
2018-10-18T10:02:10.462Z,2860
2018-10-18T10:03:19.106Z,3164
2018-10-18T10:04:27.749Z,3092
2018-10-18T10:05:36.665Z,2496
2018-10-18T10:06:45.302Z,2184
2018-10-18T10:07:53.951Z,2060
2018-10-18T10:09:03.119Z,2088
2018-10-18T10:10:11.777Z,2172
2018-10-18T10:11:20.421Z,2280
2018-10-18T10:12:29.064Z,2344
2018-10-18T10:13:38.087Z,2552
2018-10-18T10:14:46.614Z,3008
2018-10-18T10:15:55.272Z,3228
2018-10-18T10:17:03.954Z,3228
2018-10-18T10:18:12.968Z,2908
2018-10-18T10:19:21.510Z,2760
2018-10-18T10:20:30.164Z,2776
2018-10-18T10:21:38.808Z,2652
2018-10-18T10:22:47.458Z,2204
2018-10-18T10:23:56.098Z,1756
2018-10-18T10:25:05.103Z,1716
2018-10-18T10:26:14.037Z,1788
2018-10-18T10:27:23.211Z,1876
2018-10-18T10:28:31.849Z,1840
2018-10-18T10:29:40.502Z,1620
2018-10-18T10:30:49.150Z,1420
2018-10-18T10:31:57.794Z,1320
2018-10-18T10:33:07.159Z,1004
2018-10-18T10:34:15.673Z,1016
2018-10-18T10:35:24.391Z,1356
2018-10-18T10:36:33.228Z,1484
2018-10-18T10:37:41.883Z,2068
2018-10-18T10:38:50.788Z,2456
2018-10-18T10:39:59.768Z,2260
2018-10-18T10:41:08.861Z,1752
2018-10-18T10:42:17.525Z,1684
2018-10-18T10:43:26.059Z,1644
2018-10-18T10:44:35.075Z,1716
2018-10-18T10:45:44.161Z,2188
2018-10-18T10:46:52.719Z,2492
2018-10-18T10:48:01.418Z,2520
2018-10-18T10:49:10.884Z,2688
2018-10-18T10:50:19.529Z,2180
2018-10-18T10:51:28.065Z,2276
2018-10-18T10:52:36.716Z,2512
2018-10-18T10:53:45.356Z,2956
2018-10-18T10:54:54.004Z,3004
2018-10-18T10:56:03.053Z,2716
2018-10-18T10:57:12.015Z,2304
2018-10-18T10:58:20.624Z,2068
2018-10-18T10:59:29.272Z,2232
2018-10-18T11:00:37.909Z,2052
2018-10-18T11:01:46.563Z,2332
2018-10-18T11:02:55.232Z,2756
2018-10-18T11:04:03.855Z,3304
2018-10-18T11:05:12.759Z,4108
2018-10-18T11:06:21.406Z,4416
2018-10-18T11:07:30.051Z,4808
2018-10-18T11:08:38.703Z,4628
2018-10-18T11:09:47.462Z,4172
2018-10-18T11:10:55.999Z,3616
2018-10-18T11:12:04.800Z,3468
2018-10-18T11:13:13.284Z,3028
2018-10-18T11:14:21.936Z,2800
2018-10-18T11:15:30.844Z,3124
2018-10-18T11:16:39.487Z,4000
2018-10-18T11:17:48.133Z,3928
2018-10-18T11:18:57.048Z,3300
2018-10-18T11:20:06.011Z,2756
2018-10-18T11:21:15.144Z,1948
2018-10-18T11:22:23.709Z,1924
2018-10-18T11:23:32.363Z,2440
2018-10-18T11:24:41.505Z,2292
2018-10-18T11:25:50.478Z,2372
2018-10-18T11:26:59.420Z,2712
2018-10-18T11:28:08.047Z,2880
2018-10-18T11:29:16.696Z,2612
2018-10-18T11:30:25.342Z,2380
2018-10-18T11:31:33.987Z,2324
2018-10-18T11:32:42.629Z,2428
2018-10-18T11:33:51.279Z,2384
2018-10-18T11:34:59.930Z,2148
2018-10-18T11:36:08.911Z,2264
2018-10-18T11:37:17.487Z,2316
2018-10-18T11:38:26.140Z,2164
2018-10-18T11:39:35.042Z,2156
2018-10-18T11:40:43.701Z,2236
2018-10-18T11:41:52.346Z,2084
2018-10-18T11:43:00.990Z,2068
2018-10-18T11:44:10.096Z,2072
2018-10-18T11:45:18.679Z,1660
2018-10-18T11:46:27.325Z,1852
2018-10-18T11:47:35.970Z,2300
2018-10-18T11:48:44.616Z,2136
2018-10-18T11:49:53.273Z,2192
2018-10-18T11:51:02.490Z,2644
2018-10-18T11:52:11.591Z,2344
2018-10-18T11:53:20.211Z,2328
2018-10-18T11:54:28.857Z,2492
2018-10-18T11:55:37.508Z,2436
2018-10-18T11:56:46.148Z,2612
2018-10-18T11:57:54.795Z,3660
2018-10-18T11:59:03.722Z,3776
2018-10-18T12:00:12.351Z,3924
2018-10-18T12:01:21.424Z,3760
2018-10-18T12:02:30.013Z,3168
2018-10-18T12:03:38.643Z,2552
2018-10-18T12:04:47.295Z,2536
2018-10-18T12:05:55.928Z,2276
2018-10-18T12:07:04.577Z,1944
2018-10-18T12:08:13.307Z,1784
2018-10-18T12:09:21.880Z,1816
2018-10-18T12:10:30.519Z,2008
2018-10-18T12:11:39.165Z,2272
2018-10-18T12:12:47.804Z,2460
2018-10-18T12:13:56.469Z,2704
2018-10-18T12:15:05.098Z,2988
2018-10-18T12:16:13.749Z,3120
2018-10-18T12:17:22.390Z,3176
2018-10-18T12:18:31.042Z,3360
2018-10-18T12:19:39.692Z,3344
2018-10-18T12:20:48.340Z,3168
2018-10-18T12:21:56.987Z,2844
2018-10-18T12:23:06.285Z,2728
2018-10-18T12:24:15.327Z,2448
2018-10-18T12:25:23.970Z,2224
2018-10-18T12:26:32.880Z,2396
2018-10-18T12:27:41.531Z,2428
2018-10-18T12:28:50.188Z,2356
2018-10-18T12:29:59.091Z,2384
2018-10-18T12:31:07.737Z,2620
2018-10-18T12:32:17.158Z,2848
2018-10-18T12:33:25.668Z,3136
2018-10-18T12:34:34.317Z,3348
2018-10-18T12:35:43.280Z,3636
2018-10-18T12:36:52.191Z,3656
2018-10-18T12:38:01.238Z,3448
2018-10-18T12:39:10.631Z,2756
2018-10-18T12:40:19.590Z,2028
2018-10-18T12:41:28.777Z,1320
2018-10-18T12:42:37.548Z,1152
2018-10-18T12:43:46.191Z,1284
2018-10-18T12:44:54.850Z,1584
2018-10-18T12:46:03.499Z,1904
2018-10-18T12:47:12.140Z,2144
2018-10-18T12:48:20.933Z,1932
2018-10-18T12:49:29.426Z,1948
2018-10-18T12:50:38.075Z,1828
2018-10-18T12:51:46.715Z,2324
2018-10-18T12:52:55.361Z,2928
2018-10-18T12:54:04.363Z,3560
2018-10-18T12:55:13.259Z,3612
2018-10-18T12:56:21.906Z,3508
2018-10-18T12:57:30.819Z,3296
2018-10-18T12:58:39.464Z,3496
2018-10-18T12:59:48.114Z,3468
2018-10-18T13:00:56.759Z,3344
2018-10-18T13:02:05.465Z,2824
2018-10-18T13:03:14.315Z,2444
2018-10-18T13:04:22.953Z,2380
2018-10-18T13:05:31.605Z,2476
2018-10-18T13:06:40.246Z,1828
2018-10-18T13:07:48.896Z,1948
2018-10-18T13:08:57.532Z,1696
2018-10-18T13:10:06.457Z,1728
2018-10-18T13:11:15.100Z,1612
2018-10-18T13:12:24.240Z,1732
2018-10-18T13:13:33.512Z,2164
2018-10-18T13:14:42.163Z,2136
2018-10-18T13:15:50.808Z,1856
2018-10-18T13:16:59.457Z,1484
2018-10-18T13:18:08.432Z,1412
2018-10-18T13:19:17.005Z,1524
2018-10-18T13:20:25.659Z,1576
2018-10-18T13:21:34.299Z,1604
2018-10-18T13:22:43.217Z,1460
2018-10-18T13:23:51.869Z,1416
2018-10-18T13:25:00.501Z,1472
2018-10-18T13:26:09.208Z,1452
2018-10-18T13:27:17.799Z,1416
2018-10-18T13:28:26.435Z,1368
2018-10-18T13:29:35.344Z,1284
2018-10-18T13:30:43.988Z,1432
2018-10-18T13:31:52.643Z,1636
2018-10-18T13:33:01.283Z,1680
2018-10-18T13:34:10.882Z,1688
2018-10-18T13:35:19.886Z,1712
2018-10-18T13:36:28.525Z,1652
2018-10-18T13:37:37.447Z,1772
2018-10-18T13:38:46.087Z,1988
2018-10-18T13:39:54.736Z,1848
2018-10-18T13:41:03.371Z,1916
2018-10-18T13:42:12.179Z,1896
2018-10-18T13:43:20.662Z,1900
2018-10-18T13:44:29.310Z,1924
2018-10-18T13:45:37.948Z,1856
2018-10-18T13:46:46.603Z,1764
2018-10-18T13:47:55.286Z,1672
2018-10-18T13:49:03.893Z,1636
2018-10-18T13:50:12.644Z,1764
2018-10-18T13:51:21.178Z,1804
2018-10-18T13:52:29.825Z,1828
2018-10-18T13:53:38.471Z,1652
2018-10-18T13:54:47.117Z,1704
2018-10-18T13:55:55.805Z,1684
2018-10-18T13:57:04.407Z,1440
2018-10-18T13:58:13.047Z,1644
2018-10-18T13:59:21.902Z,1732
2018-10-18T14:00:30.337Z,1404
2018-10-18T14:01:38.987Z,1368
2018-10-18T14:02:47.633Z,1296
2018-10-18T14:03:56.282Z,1524
2018-10-18T14:05:04.975Z,1116
2018-10-18T14:06:13.573Z,1192
2018-10-18T14:07:22.769Z,1680
2018-10-18T14:08:31.662Z,1656
2018-10-18T14:09:40.674Z,1816
2018-10-18T14:10:49.592Z,1716
2018-10-18T14:11:58.233Z,1648
2018-10-18T14:13:06.880Z,1680
2018-10-18T14:14:15.621Z,1744
2018-10-18T14:15:24.584Z,1780
2018-10-18T14:16:33.228Z,1820
2018-10-18T14:17:43.062Z,1896
2018-10-18T14:18:51.691Z,1904
2018-10-18T14:20:00.347Z,1860
2018-10-18T14:21:08.981Z,1800
2018-10-18T14:22:17.616Z,1668
2018-10-18T14:23:26.271Z,1596
2018-10-18T14:24:35.690Z,1520
2018-10-18T14:25:44.337Z,1472
2018-10-18T14:26:52.977Z,1468
2018-10-18T14:28:01.624Z,1464
2018-10-18T14:29:10.751Z,1472
2018-10-18T14:30:19.708Z,1464
2018-10-18T14:31:28.705Z,1472
2018-10-18T14:32:37.345Z,1476
2018-10-18T14:33:45.990Z,1480
2018-10-18T14:34:54.689Z,1516
2018-10-18T14:36:03.284Z,1540
2018-10-18T14:37:12.187Z,1540
2018-10-18T14:38:20.988Z,1524
2018-10-18T14:39:29.485Z,1476
2018-10-18T14:40:38.394Z,1472
2018-10-18T14:41:47.038Z,1464
2018-10-18T14:42:55.683Z,1484
2018-10-18T14:44:05.600Z,1444
2018-10-18T14:45:14.229Z,1344
2018-10-18T14:46:23.210Z,1168
2018-10-18T14:47:31.869Z,940
2018-10-18T14:48:40.495Z,788
2018-10-18T14:49:49.143Z,668
2018-10-18T14:50:57.795Z,584
2018-10-18T14:52:06.853Z,416
2018-10-18T14:53:15.523Z,448
2018-10-18T14:54:24.068Z,484
2018-10-18T14:55:32.715Z,460
2018-10-18T14:56:41.362Z,440
2018-10-18T14:57:50.001Z,524
2018-10-18T14:58:58.680Z,664
2018-10-18T15:00:07.826Z,736
2018-10-18T15:01:16.470Z,772
2018-10-18T15:02:25.116Z,792
2018-10-18T15:03:33.750Z,808
2018-10-18T15:04:42.504Z,804
2018-10-18T15:05:51.991Z,800
2018-10-18T15:07:00.637Z,812
2018-10-18T15:08:09.377Z,848
2018-10-18T15:09:17.919Z,888
2018-10-18T15:10:26.572Z,940
2018-10-18T15:11:35.471Z,964
2018-10-18T15:12:44.261Z,972
2018-10-18T15:13:52.779Z,948
2018-10-18T15:15:01.418Z,928
2018-10-18T15:16:10.316Z,952
2018-10-18T15:17:18.973Z,1032
2018-10-18T15:18:27.618Z,1108
2018-10-18T15:19:36.804Z,1144
2018-10-18T15:20:45.711Z,1120
2018-10-18T15:21:54.364Z,1060
2018-10-18T15:23:03.085Z,1016
2018-10-18T15:24:11.649Z,996
2018-10-18T15:25:20.436Z,1000
2018-10-18T15:26:29.445Z,1004
2018-10-18T15:27:38.238Z,1004
2018-10-18T15:28:47.605Z,988
2018-10-18T15:29:56.251Z,948
2018-10-18T15:31:04.885Z,904
2018-10-18T15:32:13.563Z,868
2018-10-18T15:33:22.179Z,832
2018-10-18T15:34:30.836Z,800
2018-10-18T15:35:39.460Z,780
2018-10-18T15:36:48.114Z,764
2018-10-18T15:37:56.816Z,740
2018-10-18T15:39:05.584Z,720
2018-10-18T15:40:14.042Z,696
2018-10-18T15:41:23.094Z,660
2018-10-18T15:42:31.741Z,648
2018-10-18T15:43:40.390Z,636
2018-10-18T15:44:49.035Z,616
2018-10-18T15:45:57.674Z,572
2018-10-18T15:47:06.386Z,528
2018-10-18T15:48:14.964Z,476
2018-10-18T15:49:23.617Z,432
2018-10-18T15:50:32.253Z,376
2018-10-18T15:51:40.901Z,336
2018-10-18T15:52:49.802Z,308
2018-10-18T15:53:58.465Z,296
2018-10-18T15:55:07.089Z,276